sensor_id;sensor_type;location;lat;lon;timestamp;P1;durP1;ratioP1;P2;durP2;ratioP2
70744;SDS011;59284;31.390;34.904;2023-07-13T00:01:41;13.15;;;7.95;;
70744;SDS011;59284;31.390;34.904;2023-07-13T00:04:17;15.27;;;7.20;;
70744;SDS011;59284;31.390;34.904;2023-07-13T00:06:51;16.80;;;8.27;;
70744;SDS011;59284;31.390;34.904;2023-07-13T00:09:20;17.83;;;7.63;;
70744;SDS011;59284;31.390;34.904;2023-07-13T00:11:56;14.80;;;8.15;;
70744;SDS011;59284;31.390;34.904;2023-07-13T00:14:26;19.17;;;10.27;;
70744;SDS011;59284;31.390;34.904;2023-07-13T00:16:57;15.73;;;9.45;;
70744;SDS011;59284;31.390;34.904;2023-07-13T00:19:27;15.50;;;8.40;;
70744;SDS011;59284;31.390;34.904;2023-07-13T00:21:56;14.70;;;9.23;;
70744;SDS011;59284;31.390;34.904;2023-07-13T00:24:26;21.15;;;11.55;;
70744;SDS011;59284;31.390;34.904;2023-07-13T00:26:56;15.45;;;9.93;;
70744;SDS011;59284;31.390;34.904;2023-07-13T00:29:26;16.48;;;10.82;;
70744;SDS011;59284;31.390;34.904;2023-07-13T00:31:55;13.95;;;9.63;;
70744;SDS011;59284;31.390;34.904;2023-07-13T00:34:29;21.30;;;12.37;;
70744;SDS011;59284;31.390;34.904;2023-07-13T00:37:04;13.60;;;8.77;;
70744;SDS011;59284;31.390;34.904;2023-07-13T00:39:40;16.38;;;10.68;;
70744;SDS011;59284;31.390;34.904;2023-07-13T00:42:17;18.52;;;10.13;;
70744;SDS011;59284;31.390;34.904;2023-07-13T00:45:05;21.02;;;11.82;;
70744;SDS011;59284;31.390;34.904;2023-07-13T00:47:38;28.50;;;12.93;;
70744;SDS011;59284;31.390;34.904;2023-07-13T00:50:09;17.95;;;11.23;;
70744;SDS011;59284;31.390;34.904;2023-07-13T00:52:41;23.13;;;12.68;;
70744;SDS011;59284;31.390;34.904;2023-07-13T00:55:14;17.00;;;11.50;;
70744;SDS011;59284;31.390;34.904;2023-07-13T00:57:48;19.95;;;11.95;;
70744;SDS011;59284;31.390;34.904;2023-07-13T01:00:18;17.05;;;12.07;;
70744;SDS011;59284;31.390;34.904;2023-07-13T01:03:06;17.40;;;11.17;;
70744;SDS011;59284;31.390;34.904;2023-07-13T01:05:52;14.73;;;9.63;;
70744;SDS011;59284;31.390;34.904;2023-07-13T01:08:39;16.00;;;10.32;;
70744;SDS011;59284;31.390;34.904;2023-07-13T01:11:25;16.30;;;8.43;;
70744;SDS011;59284;31.390;34.904;2023-07-13T01:14:12;20.48;;;13.10;;
70744;SDS011;59284;31.390;34.904;2023-07-13T01:16:59;16.40;;;10.27;;
70744;SDS011;59284;31.390;34.904;2023-07-13T01:19:45;16.30;;;10.98;;
70744;SDS011;59284;31.390;34.904;2023-07-13T01:22:33;19.27;;;11.80;;
70744;SDS011;59284;31.390;34.904;2023-07-13T01:25:20;22.48;;;12.70;;
70744;SDS011;59284;31.390;34.904;2023-07-13T01:28:07;14.55;;;10.10;;
70744;SDS011;59284;31.390;34.904;2023-07-13T01:30:54;21.67;;;13.60;;
70744;SDS011;59284;31.390;34.904;2023-07-13T01:33:41;24.13;;;14.25;;
70744;SDS011;59284;31.390;34.904;2023-07-13T01:36:27;19.90;;;13.32;;
70744;SDS011;59284;31.390;34.904;2023-07-13T01:39:13;18.95;;;12.63;;
70744;SDS011;59284;31.390;34.904;2023-07-13T01:42:00;20.60;;;13.48;;
70744;SDS011;59284;31.390;34.904;2023-07-13T01:44:46;23.23;;;14.07;;
70744;SDS011;59284;31.390;34.904;2023-07-13T01:47:32;22.00;;;13.50;;
70744;SDS011;59284;31.390;34.904;2023-07-13T01:50:18;27.63;;;16.75;;
70744;SDS011;59284;31.390;34.904;2023-07-13T01:53:05;26.38;;;15.93;;
70744;SDS011;59284;31.390;34.904;2023-07-13T01:55:51;28.38;;;15.85;;
70744;SDS011;59284;31.390;34.904;2023-07-13T01:58:37;26.52;;;14.35;;
70744;SDS011;59284;31.390;34.904;2023-07-13T02:01:24;25.13;;;14.53;;
70744;SDS011;59284;31.390;34.904;2023-07-13T02:04:10;24.45;;;15.32;;
70744;SDS011;59284;31.390;34.904;2023-07-13T02:06:56;24.15;;;15.45;;
70744;SDS011;59284;31.390;34.904;2023-07-13T02:09:42;28.20;;;15.88;;
70744;SDS011;59284;31.390;34.904;2023-07-13T02:12:29;22.40;;;13.93;;
70744;SDS011;59284;31.390;34.904;2023-07-13T02:15:15;27.63;;;13.23;;
70744;SDS011;59284;31.390;34.904;2023-07-13T02:18:08;30.88;;;16.02;;
70744;SDS011;59284;31.390;34.904;2023-07-13T02:20:54;27.88;;;15.20;;
70744;SDS011;59284;31.390;34.904;2023-07-13T02:23:40;24.05;;;14.38;;
70744;SDS011;59284;31.390;34.904;2023-07-13T02:26:26;29.83;;;15.18;;
70744;SDS011;59284;31.390;34.904;2023-07-13T02:29:13;25.53;;;14.23;;
70744;SDS011;59284;31.390;34.904;2023-07-13T02:31:59;27.80;;;15.07;;
70744;SDS011;59284;31.390;34.904;2023-07-13T02:34:45;31.33;;;15.57;;
70744;SDS011;59284;31.390;34.904;2023-07-13T02:37:31;28.15;;;15.65;;
70744;SDS011;59284;31.390;34.904;2023-07-13T02:40:17;29.38;;;15.27;;
70744;SDS011;59284;31.390;34.904;2023-07-13T02:43:03;27.17;;;15.53;;
70744;SDS011;59284;31.390;34.904;2023-07-13T02:45:50;27.80;;;13.07;;
70744;SDS011;59284;31.390;34.904;2023-07-13T02:48:37;21.92;;;12.18;;
70744;SDS011;59284;31.390;34.904;2023-07-13T02:51:23;27.83;;;13.57;;
70744;SDS011;59284;31.390;34.904;2023-07-13T02:54:09;26.00;;;13.77;;
70744;SDS011;59284;31.390;34.904;2023-07-13T02:56:56;27.17;;;14.23;;
70744;SDS011;59284;31.390;34.904;2023-07-13T02:59:42;26.80;;;13.82;;
70744;SDS011;59284;31.390;34.904;2023-07-13T03:02:32;29.75;;;14.48;;
70744;SDS011;59284;31.390;34.904;2023-07-13T03:05:22;24.83;;;13.55;;
70744;SDS011;59284;31.390;34.904;2023-07-13T03:08:10;30.63;;;13.70;;
70744;SDS011;59284;31.390;34.904;2023-07-13T03:11:15;25.30;;;13.47;;
70744;SDS011;59284;31.390;34.904;2023-07-13T03:14:02;31.30;;;17.02;;
70744;SDS011;59284;31.390;34.904;2023-07-13T03:16:49;30.80;;;15.82;;
70744;SDS011;59284;31.390;34.904;2023-07-13T03:19:35;27.90;;;12.80;;
70744;SDS011;59284;31.390;34.904;2023-07-13T03:22:22;25.83;;;13.00;;
70744;SDS011;59284;31.390;34.904;2023-07-13T03:25:08;20.33;;;11.30;;
70744;SDS011;59284;31.390;34.904;2023-07-13T03:27:54;19.67;;;10.65;;
70744;SDS011;59284;31.390;34.904;2023-07-13T03:30:41;19.13;;;10.18;;
70744;SDS011;59284;31.390;34.904;2023-07-13T03:33:28;18.33;;;9.35;;
70744;SDS011;59284;31.390;34.904;2023-07-13T03:36:16;15.95;;;8.80;;
70744;SDS011;59284;31.390;34.904;2023-07-13T03:39:03;18.20;;;8.97;;
70744;SDS011;59284;31.390;34.904;2023-07-13T03:41:49;15.07;;;9.75;;
70744;SDS011;59284;31.390;34.904;2023-07-13T03:44:35;14.13;;;8.90;;
70744;SDS011;59284;31.390;34.904;2023-07-13T03:47:21;12.55;;;8.95;;
70744;SDS011;59284;31.390;34.904;2023-07-13T03:50:08;13.43;;;8.27;;
70744;SDS011;59284;31.390;34.904;2023-07-13T03:52:54;14.30;;;8.52;;
70744;SDS011;59284;31.390;34.904;2023-07-13T03:55:40;16.40;;;7.90;;
70744;SDS011;59284;31.390;34.904;2023-07-13T03:58:28;13.02;;;7.85;;
70744;SDS011;59284;31.390;34.904;2023-07-13T04:01:16;13.98;;;8.07;;
70744;SDS011;59284;31.390;34.904;2023-07-13T04:04:03;13.32;;;8.23;;
70744;SDS011;59284;31.390;34.904;2023-07-13T04:06:49;15.15;;;7.53;;
70744;SDS011;59284;31.390;34.904;2023-07-13T04:09:35;15.83;;;8.47;;
70744;SDS011;59284;31.390;34.904;2023-07-13T04:12:22;18.23;;;8.45;;
70744;SDS011;59284;31.390;34.904;2023-07-13T04:15:08;16.85;;;8.70;;
70744;SDS011;59284;31.390;34.904;2023-07-13T04:17:55;26.00;;;9.30;;
70744;SDS011;59284;31.390;34.904;2023-07-13T04:20:41;22.88;;;8.40;;
70744;SDS011;59284;31.390;34.904;2023-07-13T04:23:27;19.60;;;8.43;;
70744;SDS011;59284;31.390;34.904;2023-07-13T04:26:14;18.67;;;8.57;;
70744;SDS011;59284;31.390;34.904;2023-07-13T04:29:03;21.58;;;8.77;;
70744;SDS011;59284;31.390;34.904;2023-07-13T04:31:45;24.48;;;8.52;;
70744;SDS011;59284;31.390;34.904;2023-07-13T04:34:22;17.02;;;9.18;;
70744;SDS011;59284;31.390;34.904;2023-07-13T04:36:59;21.57;;;9.43;;
70744;SDS011;59284;31.390;34.904;2023-07-13T04:39:36;25.07;;;11.37;;
70744;SDS011;59284;31.390;34.904;2023-07-13T04:42:08;20.60;;;10.15;;
70744;SDS011;59284;31.390;34.904;2023-07-13T04:44:41;26.88;;;10.93;;
70744;SDS011;59284;31.390;34.904;2023-07-13T04:47:20;21.30;;;10.15;;
70744;SDS011;59284;31.390;34.904;2023-07-13T04:49:54;26.50;;;10.55;;
70744;SDS011;59284;31.390;34.904;2023-07-13T04:52:28;24.20;;;9.43;;
70744;SDS011;59284;31.390;34.904;2023-07-13T04:55:04;23.85;;;10.90;;
70744;SDS011;59284;31.390;34.904;2023-07-13T04:57:43;19.13;;;9.35;;
70744;SDS011;59284;31.390;34.904;2023-07-13T05:00:12;17.88;;;8.57;;
70744;SDS011;59284;31.390;34.904;2023-07-13T05:02:42;16.27;;;8.43;;
70744;SDS011;59284;31.390;34.904;2023-07-13T05:05:09;15.63;;;7.77;;
70744;SDS011;59284;31.390;34.904;2023-07-13T05:07:35;28.23;;;8.20;;
70744;SDS011;59284;31.390;34.904;2023-07-13T05:10:01;21.15;;;9.38;;
70744;SDS011;59284;31.390;34.904;2023-07-13T05:12:30;22.88;;;9.45;;
70744;SDS011;59284;31.390;34.904;2023-07-13T05:14:56;22.93;;;9.23;;
70744;SDS011;59284;31.390;34.904;2023-07-13T05:17:21;27.00;;;10.05;;
70744;SDS011;59284;31.390;34.904;2023-07-13T05:19:47;16.73;;;8.40;;
70744;SDS011;59284;31.390;34.904;2023-07-13T05:22:13;15.45;;;7.70;;
70744;SDS011;59284;31.390;34.904;2023-07-13T05:24:38;22.03;;;8.50;;
70744;SDS011;59284;31.390;34.904;2023-07-13T05:27:03;12.27;;;6.90;;
70744;SDS011;59284;31.390;34.904;2023-07-13T05:29:29;10.50;;;7.07;;
70744;SDS011;59284;31.390;34.904;2023-07-13T05:31:54;10.05;;;6.10;;
70744;SDS011;59284;31.390;34.904;2023-07-13T05:34:20;13.60;;;6.00;;
70744;SDS011;59284;31.390;34.904;2023-07-13T05:36:46;13.23;;;5.50;;
70744;SDS011;59284;31.390;34.904;2023-07-13T05:39:11;17.47;;;5.67;;
70744;SDS011;59284;31.390;34.904;2023-07-13T05:41:37;15.63;;;5.50;;
70744;SDS011;59284;31.390;34.904;2023-07-13T05:44:02;11.45;;;5.88;;
70744;SDS011;59284;31.390;34.904;2023-07-13T05:46:28;11.50;;;5.33;;
70744;SDS011;59284;31.390;34.904;2023-07-13T05:48:53;12.83;;;6.50;;
70744;SDS011;59284;31.390;34.904;2023-07-13T05:51:19;18.55;;;6.93;;
70744;SDS011;59284;31.390;34.904;2023-07-13T05:53:44;13.97;;;6.40;;
70744;SDS011;59284;31.390;34.904;2023-07-13T05:56:10;16.03;;;7.07;;
70744;SDS011;59284;31.390;34.904;2023-07-13T05:58:37;13.30;;;6.25;;
70744;SDS011;59284;31.390;34.904;2023-07-13T06:01:06;12.50;;;6.60;;
70744;SDS011;59284;31.390;34.904;2023-07-13T06:03:32;17.67;;;7.40;;
70744;SDS011;59284;31.390;34.904;2023-07-13T06:05:58;17.75;;;7.30;;
70744;SDS011;59284;31.390;34.904;2023-07-13T06:08:25;12.43;;;5.68;;
70744;SDS011;59284;31.390;34.904;2023-07-13T06:10:51;13.70;;;6.10;;
70744;SDS011;59284;31.390;34.904;2023-07-13T06:13:17;9.48;;;5.03;;
70744;SDS011;59284;31.390;34.904;2023-07-13T06:15:53;10.40;;;5.72;;
70744;SDS011;59284;31.390;34.904;2023-07-13T06:18:19;8.40;;;5.53;;
70744;SDS011;59284;31.390;34.904;2023-07-13T06:20:44;12.20;;;5.40;;
70744;SDS011;59284;31.390;34.904;2023-07-13T06:23:10;13.07;;;6.27;;
70744;SDS011;59284;31.390;34.904;2023-07-13T06:25:35;9.32;;;4.95;;
70744;SDS011;59284;31.390;34.904;2023-07-13T06:28:00;10.23;;;5.00;;
70744;SDS011;59284;31.390;34.904;2023-07-13T06:30:26;16.67;;;5.33;;
70744;SDS011;59284;31.390;34.904;2023-07-13T06:32:52;10.37;;;4.93;;
70744;SDS011;59284;31.390;34.904;2023-07-13T06:35:17;6.22;;;3.85;;
70744;SDS011;59284;31.390;34.904;2023-07-13T06:37:43;10.73;;;3.87;;
70744;SDS011;59284;31.390;34.904;2023-07-13T06:40:08;9.75;;;4.82;;
70744;SDS011;59284;31.390;34.904;2023-07-13T06:42:34;8.17;;;4.57;;
70744;SDS011;59284;31.390;34.904;2023-07-13T06:44:59;7.37;;;3.60;;
70744;SDS011;59284;31.390;34.904;2023-07-13T06:47:24;7.50;;;4.37;;
70744;SDS011;59284;31.390;34.904;2023-07-13T06:49:50;8.60;;;4.45;;
70744;SDS011;59284;31.390;34.904;2023-07-13T06:52:15;8.83;;;4.10;;
70744;SDS011;59284;31.390;34.904;2023-07-13T06:54:41;7.53;;;4.63;;
70744;SDS011;59284;31.390;34.904;2023-07-13T06:57:06;8.07;;;4.70;;
70744;SDS011;59284;31.390;34.904;2023-07-13T06:59:32;8.77;;;5.10;;
70744;SDS011;59284;31.390;34.904;2023-07-13T07:01:57;11.97;;;4.80;;
70744;SDS011;59284;31.390;34.904;2023-07-13T07:04:23;12.90;;;4.23;;
70744;SDS011;59284;31.390;34.904;2023-07-13T07:06:48;7.78;;;4.63;;
70744;SDS011;59284;31.390;34.904;2023-07-13T07:09:14;7.90;;;3.70;;
70744;SDS011;59284;31.390;34.904;2023-07-13T07:11:41;8.68;;;4.50;;
70744;SDS011;59284;31.390;34.904;2023-07-13T07:14:07;8.53;;;5.03;;
70744;SDS011;59284;31.390;34.904;2023-07-13T07:16:32;8.38;;;4.70;;
70744;SDS011;59284;31.390;34.904;2023-07-13T07:18:58;8.70;;;4.80;;
70744;SDS011;59284;31.390;34.904;2023-07-13T07:21:23;8.23;;;4.30;;
70744;SDS011;59284;31.390;34.904;2023-07-13T07:23:49;9.13;;;4.80;;
70744;SDS011;59284;31.390;34.904;2023-07-13T07:26:14;8.85;;;4.72;;
70744;SDS011;59284;31.390;34.904;2023-07-13T07:28:40;9.57;;;5.10;;
70744;SDS011;59284;31.390;34.904;2023-07-13T07:31:05;10.80;;;5.13;;
70744;SDS011;59284;31.390;34.904;2023-07-13T07:33:31;8.15;;;3.97;;
70744;SDS011;59284;31.390;34.904;2023-07-13T07:35:57;10.40;;;4.67;;
70744;SDS011;59284;31.390;34.904;2023-07-13T07:38:22;10.20;;;4.53;;
70744;SDS011;59284;31.390;34.904;2023-07-13T07:40:48;6.77;;;3.60;;
70744;SDS011;59284;31.390;34.904;2023-07-13T07:43:13;8.37;;;5.27;;
70744;SDS011;59284;31.390;34.904;2023-07-13T07:45:39;8.47;;;4.77;;
70744;SDS011;59284;31.390;34.904;2023-07-13T07:48:04;8.38;;;4.80;;
70744;SDS011;59284;31.390;34.904;2023-07-13T07:50:30;6.17;;;4.37;;
70744;SDS011;59284;31.390;34.904;2023-07-13T07:52:56;8.40;;;4.20;;
70744;SDS011;59284;31.390;34.904;2023-07-13T07:55:21;6.50;;;4.53;;
70744;SDS011;59284;31.390;34.904;2023-07-13T07:57:47;8.57;;;4.85;;
70744;SDS011;59284;31.390;34.904;2023-07-13T08:00:13;6.50;;;4.20;;
70744;SDS011;59284;31.390;34.904;2023-07-13T08:02:38;7.93;;;3.75;;
70744;SDS011;59284;31.390;34.904;2023-07-13T08:05:06;9.67;;;4.63;;
70744;SDS011;59284;31.390;34.904;2023-07-13T08:07:31;7.18;;;4.60;;
70744;SDS011;59284;31.390;34.904;2023-07-13T08:09:57;8.63;;;5.57;;
70744;SDS011;59284;31.390;34.904;2023-07-13T08:12:22;9.07;;;5.53;;
70744;SDS011;59284;31.390;34.904;2023-07-13T08:14:50;8.18;;;5.10;;
70744;SDS011;59284;31.390;34.904;2023-07-13T08:17:19;9.50;;;5.67;;
70744;SDS011;59284;31.390;34.904;2023-07-13T08:19:45;10.05;;;4.55;;
70744;SDS011;59284;31.390;34.904;2023-07-13T08:22:10;13.02;;;5.35;;
70744;SDS011;59284;31.390;34.904;2023-07-13T08:24:36;7.63;;;4.77;;
70744;SDS011;59284;31.390;34.904;2023-07-13T08:27:01;8.93;;;4.47;;
70744;SDS011;59284;31.390;34.904;2023-07-13T08:29:26;8.67;;;4.83;;
70744;SDS011;59284;31.390;34.904;2023-07-13T08:31:52;9.53;;;4.80;;
70744;SDS011;59284;31.390;34.904;2023-07-13T08:34:17;11.88;;;5.28;;
70744;SDS011;59284;31.390;34.904;2023-07-13T08:36:43;7.03;;;4.10;;
70744;SDS011;59284;31.390;34.904;2023-07-13T08:39:08;10.93;;;4.67;;
70744;SDS011;59284;31.390;34.904;2023-07-13T08:41:34;13.68;;;4.38;;
70744;SDS011;59284;31.390;34.904;2023-07-13T08:43:59;11.67;;;5.37;;
70744;SDS011;59284;31.390;34.904;2023-07-13T08:46:33;12.32;;;5.15;;
70744;SDS011;59284;31.390;34.904;2023-07-13T08:49:03;9.00;;;4.97;;
70744;SDS011;59284;31.390;34.904;2023-07-13T08:51:43;10.10;;;4.80;;
70744;SDS011;59284;31.390;34.904;2023-07-13T08:54:19;8.02;;;4.65;;
70744;SDS011;59284;31.390;34.904;2023-07-13T08:56:46;7.90;;;4.65;;
70744;SDS011;59284;31.390;34.904;2023-07-13T08:59:15;7.85;;;5.03;;
70744;SDS011;59284;31.390;34.904;2023-07-13T09:04:21;13.10;;;5.03;;
70744;SDS011;59284;31.390;34.904;2023-07-13T09:09:26;9.73;;;4.95;;
70744;SDS011;59284;31.390;34.904;2023-07-13T09:11:56;6.65;;;4.70;;
70744;SDS011;59284;31.390;34.904;2023-07-13T09:14:26;7.38;;;4.60;;
70744;SDS011;59284;31.390;34.904;2023-07-13T09:16:56;12.03;;;5.30;;
70744;SDS011;59284;31.390;34.904;2023-07-13T09:19:25;9.45;;;5.75;;
70744;SDS011;59284;31.390;34.904;2023-07-13T09:21:52;13.03;;;7.27;;
70744;SDS011;59284;31.390;34.904;2023-07-13T09:24:30;14.63;;;7.40;;
70744;SDS011;59284;31.390;34.904;2023-07-13T09:26:59;10.95;;;6.25;;
70744;SDS011;59284;31.390;34.904;2023-07-13T09:29:29;13.50;;;7.22;;
70744;SDS011;59284;31.390;34.904;2023-07-13T09:31:55;10.90;;;7.50;;
70744;SDS011;59284;31.390;34.904;2023-07-13T09:34:23;12.60;;;7.10;;
70744;SDS011;59284;31.390;34.904;2023-07-13T09:36:49;13.07;;;8.90;;
70744;SDS011;59284;31.390;34.904;2023-07-13T09:39:15;12.07;;;8.87;;
70744;SDS011;59284;31.390;34.904;2023-07-13T09:42:00;13.23;;;9.82;;
70744;SDS011;59284;31.390;34.904;2023-07-13T09:44:30;15.43;;;9.27;;
70744;SDS011;59284;31.390;34.904;2023-07-13T09:46:58;15.63;;;8.45;;
70744;SDS011;59284;31.390;34.904;2023-07-13T09:49:27;17.13;;;7.57;;
70744;SDS011;59284;31.390;34.904;2023-07-13T09:52:06;13.38;;;8.15;;
70744;SDS011;59284;31.390;34.904;2023-07-13T09:54:35;13.50;;;8.10;;
70744;SDS011;59284;31.390;34.904;2023-07-13T09:57:01;19.75;;;7.40;;
70744;SDS011;59284;31.390;34.904;2023-07-13T09:59:32;18.70;;;6.68;;
70744;SDS011;59284;31.390;34.904;2023-07-13T10:01:57;15.18;;;11.95;;
70744;SDS011;59284;31.390;34.904;2023-07-13T10:04:41;11.87;;;9.23;;
70744;SDS011;59284;31.390;34.904;2023-07-13T10:07:12;20.63;;;12.90;;
70744;SDS011;59284;31.390;34.904;2023-07-13T10:09:40;18.88;;;13.50;;
70744;SDS011;59284;31.390;34.904;2023-07-13T10:12:14;23.23;;;12.60;;
70744;SDS011;59284;31.390;34.904;2023-07-13T10:14:41;27.08;;;20.48;;
70744;SDS011;59284;31.390;34.904;2023-07-13T10:17:08;21.27;;;15.97;;
70744;SDS011;59284;31.390;34.904;2023-07-13T10:19:36;20.45;;;14.85;;
70744;SDS011;59284;31.390;34.904;2023-07-13T10:22:02;21.23;;;15.38;;
70744;SDS011;59284;31.390;34.904;2023-07-13T10:24:35;22.45;;;17.30;;
70744;SDS011;59284;31.390;34.904;2023-07-13T10:29:37;32.22;;;17.52;;
70744;SDS011;59284;31.390;34.904;2023-07-13T10:32:07;24.15;;;16.50;;
70744;SDS011;59284;31.390;34.904;2023-07-13T10:34:33;20.88;;;15.05;;
70744;SDS011;59284;31.390;34.904;2023-07-13T10:36:59;27.83;;;17.93;;
70744;SDS011;59284;31.390;34.904;2023-07-13T10:39:26;26.75;;;16.90;;
70744;SDS011;59284;31.390;34.904;2023-07-13T10:41:57;23.92;;;13.57;;
70744;SDS011;59284;31.390;34.904;2023-07-13T10:44:33;17.52;;;10.60;;
70744;SDS011;59284;31.390;34.904;2023-07-13T10:47:00;21.03;;;14.27;;
70744;SDS011;59284;31.390;34.904;2023-07-13T10:49:26;21.65;;;12.93;;
70744;SDS011;59284;31.390;34.904;2023-07-13T10:51:53;16.95;;;11.82;;
70744;SDS011;59284;31.390;34.904;2023-07-13T10:54:20;19.00;;;11.80;;
70744;SDS011;59284;31.390;34.904;2023-07-13T10:56:50;16.85;;;8.70;;
70744;SDS011;59284;31.390;34.904;2023-07-13T10:59:34;17.25;;;8.60;;
70744;SDS011;59284;31.390;34.904;2023-07-13T11:04:29;23.73;;;13.10;;
70744;SDS011;59284;31.390;34.904;2023-07-13T11:06:58;15.68;;;11.10;;
70744;SDS011;59284;31.390;34.904;2023-07-13T11:12:06;9.38;;;4.82;;
70744;SDS011;59284;31.390;34.904;2023-07-13T11:17:23;13.27;;;6.17;;
70744;SDS011;59284;31.390;34.904;2023-07-13T11:19:46;16.33;;;7.22;;
70744;SDS011;59284;31.390;34.904;2023-07-13T11:22:16;16.08;;;7.38;;
70744;SDS011;59284;31.390;34.904;2023-07-13T11:24:52;25.33;;;9.50;;
70744;SDS011;59284;31.390;34.904;2023-07-13T11:27:38;21.20;;;11.07;;
70744;SDS011;59284;31.390;34.904;2023-07-13T11:32:50;11.27;;;5.60;;
70744;SDS011;59284;31.390;34.904;2023-07-13T11:35:17;11.00;;;7.43;;
70744;SDS011;59284;31.390;34.904;2023-07-13T11:37:44;13.07;;;8.63;;
70744;SDS011;59284;31.390;34.904;2023-07-13T11:40:12;11.95;;;4.78;;
70744;SDS011;59284;31.390;34.904;2023-07-13T11:42:38;14.63;;;9.20;;
70744;SDS011;59284;31.390;34.904;2023-07-13T11:45:12;14.60;;;8.45;;
70744;SDS011;59284;31.390;34.904;2023-07-13T11:47:43;16.40;;;5.33;;
70744;SDS011;59284;31.390;34.904;2023-07-13T11:50:16;12.35;;;6.90;;
70744;SDS011;59284;31.390;34.904;2023-07-13T11:52:42;22.70;;;7.83;;
70744;SDS011;59284;31.390;34.904;2023-07-13T11:55:13;13.05;;;6.28;;
70744;SDS011;59284;31.390;34.904;2023-07-13T11:57:47;18.30;;;4.70;;
70744;SDS011;59284;31.390;34.904;2023-07-13T12:00:13;14.63;;;4.93;;
70744;SDS011;59284;31.390;34.904;2023-07-13T12:02:44;14.87;;;6.57;;
70744;SDS011;59284;31.390;34.904;2023-07-13T12:05:11;10.38;;;4.25;;
70744;SDS011;59284;31.390;34.904;2023-07-13T12:07:37;12.05;;;7.10;;
70744;SDS011;59284;31.390;34.904;2023-07-13T12:10:22;19.87;;;9.00;;
70744;SDS011;59284;31.390;34.904;2023-07-13T12:15:14;8.47;;;5.10;;
70744;SDS011;59284;31.390;34.904;2023-07-13T12:17:39;14.93;;;7.40;;
70744;SDS011;59284;31.390;34.904;2023-07-13T12:20:18;12.90;;;5.80;;
70744;SDS011;59284;31.390;34.904;2023-07-13T12:22:48;16.20;;;6.15;;
70744;SDS011;59284;31.390;34.904;2023-07-13T12:25:14;15.43;;;4.97;;
70744;SDS011;59284;31.390;34.904;2023-07-13T12:27:40;15.30;;;5.35;;
70744;SDS011;59284;31.390;34.904;2023-07-13T12:30:21;15.63;;;4.40;;
70744;SDS011;59284;31.390;34.904;2023-07-13T12:33:23;10.93;;;5.20;;
70744;SDS011;59284;31.390;34.904;2023-07-13T12:35:47;12.75;;;4.55;;
70744;SDS011;59284;31.390;34.904;2023-07-13T12:38:15;10.70;;;4.43;;
70744;SDS011;59284;31.390;34.904;2023-07-13T12:40:40;16.75;;;6.72;;
70744;SDS011;59284;31.390;34.904;2023-07-13T12:43:10;15.37;;;7.70;;
70744;SDS011;59284;31.390;34.904;2023-07-13T12:45:36;18.40;;;6.65;;
70744;SDS011;59284;31.390;34.904;2023-07-13T12:48:10;13.33;;;4.93;;
70744;SDS011;59284;31.390;34.904;2023-07-13T12:50:40;22.35;;;10.43;;
70744;SDS011;59284;31.390;34.904;2023-07-13T12:53:12;16.58;;;9.07;;
70744;SDS011;59284;31.390;34.904;2023-07-13T12:55:46;16.33;;;5.47;;
70744;SDS011;59284;31.390;34.904;2023-07-13T12:58:56;10.18;;;4.13;;
70744;SDS011;59284;31.390;34.904;2023-07-13T13:01:01;20.23;;;4.30;;
70744;SDS011;59284;31.390;34.904;2023-07-13T13:03:32;15.25;;;4.28;;
70744;SDS011;59284;31.390;34.904;2023-07-13T13:06:02;9.95;;;3.22;;
70744;SDS011;59284;31.390;34.904;2023-07-13T13:08:29;15.38;;;3.60;;
70744;SDS011;59284;31.390;34.904;2023-07-13T13:10:54;9.98;;;4.35;;
70744;SDS011;59284;31.390;34.904;2023-07-13T13:13:20;9.83;;;3.37;;
70744;SDS011;59284;31.390;34.904;2023-07-13T13:15:45;9.57;;;2.53;;
70744;SDS011;59284;31.390;34.904;2023-07-13T13:18:15;8.97;;;2.80;;
70744;SDS011;59284;31.390;34.904;2023-07-13T13:20:41;16.23;;;3.47;;
70744;SDS011;59284;31.390;34.904;2023-07-13T13:23:10;12.35;;;2.88;;
70744;SDS011;59284;31.390;34.904;2023-07-13T13:25:36;12.03;;;3.17;;
70744;SDS011;59284;31.390;34.904;2023-07-13T13:28:01;15.00;;;3.60;;
70744;SDS011;59284;31.390;34.904;2023-07-13T13:30:27;10.13;;;3.10;;
70744;SDS011;59284;31.390;34.904;2023-07-13T13:32:52;11.23;;;3.00;;
70744;SDS011;59284;31.390;34.904;2023-07-13T13:35:18;18.03;;;3.07;;
70744;SDS011;59284;31.390;34.904;2023-07-13T13:37:44;11.85;;;2.90;;
70744;SDS011;59284;31.390;34.904;2023-07-13T13:40:17;20.02;;;7.05;;
70744;SDS011;59284;31.390;34.904;2023-07-13T13:42:42;12.32;;;2.80;;
70744;SDS011;59284;31.390;34.904;2023-07-13T13:45:11;13.10;;;2.93;;
70744;SDS011;59284;31.390;34.904;2023-07-13T13:47:38;11.82;;;4.78;;
70744;SDS011;59284;31.390;34.904;2023-07-13T13:50:13;18.00;;;4.80;;
70744;SDS011;59284;31.390;34.904;2023-07-13T13:52:40;43.70;;;27.80;;
70744;SDS011;59284;31.390;34.904;2023-07-13T13:55:14;15.88;;;7.70;;
70744;SDS011;59284;31.390;34.904;2023-07-13T13:57:40;17.15;;;7.45;;
70744;SDS011;59284;31.390;34.904;2023-07-13T14:00:06;12.93;;;3.63;;
70744;SDS011;59284;31.390;34.904;2023-07-13T14:02:31;12.20;;;2.90;;
70744;SDS011;59284;31.390;34.904;2023-07-13T14:04:58;13.07;;;3.20;;
70744;SDS011;59284;31.390;34.904;2023-07-13T14:07:24;7.60;;;2.42;;
70744;SDS011;59284;31.390;34.904;2023-07-13T14:09:49;18.73;;;2.97;;
70744;SDS011;59284;31.390;34.904;2023-07-13T14:12:15;10.43;;;2.40;;
70744;SDS011;59284;31.390;34.904;2023-07-13T14:14:40;12.18;;;2.60;;
70744;SDS011;59284;31.390;34.904;2023-07-13T14:17:15;12.40;;;3.00;;
70744;SDS011;59284;31.390;34.904;2023-07-13T14:19:43;14.38;;;2.60;;
70744;SDS011;59284;31.390;34.904;2023-07-13T14:22:08;18.97;;;3.13;;
70744;SDS011;59284;31.390;34.904;2023-07-13T14:24:33;12.23;;;2.72;;
70744;SDS011;59284;31.390;34.904;2023-07-13T14:26:59;15.30;;;2.30;;
70744;SDS011;59284;31.390;34.904;2023-07-13T14:29:24;9.07;;;2.10;;
70744;SDS011;59284;31.390;34.904;2023-07-13T14:31:50;12.03;;;2.57;;
70744;SDS011;59284;31.390;34.904;2023-07-13T14:34:16;15.10;;;2.42;;
70744;SDS011;59284;31.390;34.904;2023-07-13T14:36:42;6.82;;;2.28;;
70744;SDS011;59284;31.390;34.904;2023-07-13T14:39:20;5.27;;;1.90;;
70744;SDS011;59284;31.390;34.904;2023-07-13T14:41:49;15.98;;;2.60;;
70744;SDS011;59284;31.390;34.904;2023-07-13T14:44:16;14.82;;;2.70;;
70744;SDS011;59284;31.390;34.904;2023-07-13T14:46:42;12.30;;;2.20;;
70744;SDS011;59284;31.390;34.904;2023-07-13T14:51:45;12.93;;;2.90;;
70744;SDS011;59284;31.390;34.904;2023-07-13T14:54:11;10.32;;;2.22;;
70744;SDS011;59284;31.390;34.904;2023-07-13T14:56:36;11.43;;;2.73;;
70744;SDS011;59284;31.390;34.904;2023-07-13T14:59:02;14.00;;;2.60;;
70744;SDS011;59284;31.390;34.904;2023-07-13T15:01:27;6.63;;;1.73;;
70744;SDS011;59284;31.390;34.904;2023-07-13T15:03:53;9.20;;;2.20;;
70744;SDS011;59284;31.390;34.904;2023-07-13T15:06:19;12.60;;;2.40;;
70744;SDS011;59284;31.390;34.904;2023-07-13T15:08:44;10.80;;;2.30;;
70744;SDS011;59284;31.390;34.904;2023-07-13T15:11:10;9.45;;;2.13;;
70744;SDS011;59284;31.390;34.904;2023-07-13T15:13:39;11.73;;;2.10;;
70744;SDS011;59284;31.390;34.904;2023-07-13T15:16:05;7.93;;;1.80;;